createdAt,value
2024-03-19T00:02:54.764Z,68.97497793255802
2024-03-19T00:05:50.332Z,69.25934938993143
2024-03-19T00:08:45.880Z,74.10082018985179
2024-03-19T00:11:41.462Z,68.23199532458504
2024-03-19T00:14:37.043Z,69.2768863398223
2024-03-19T00:17:32.604Z,68.23055145311382
2024-03-19T00:20:31.185Z,71.55055993893609
2024-03-19T00:23:28.672Z,67.77731555789306
2024-03-19T00:26:28.236Z,67.32543522343849
2024-03-19T00:29:25.809Z,70.27245985764708
2024-03-19T00:32:22.370Z,66.65315245728584
2024-03-19T00:35:18.984Z,69.83388684199825
2024-03-19T00:38:15.549Z,67.46509261383065
2024-03-19T00:41:11.025Z,70.91302858410909
2024-03-19T00:44:07.579Z,66.27850795267253
2024-03-19T00:47:04.153Z,71.83598333135384
2024-03-19T00:50:00.697Z,69.82994992575075
2024-03-19T00:52:56.261Z,73.74616276188071
2024-03-19T00:55:51.864Z,75.45386077133688
2024-03-19T00:58:47.406Z,72.26904244725027
2024-03-19T01:01:42.971Z,72.04701759496339
2024-03-19T01:04:44.391Z,72.31697512416545
2024-03-19T01:07:42.072Z,71.30280929971192
2024-03-19T01:10:39.612Z,72.66842324531216
2024-03-19T01:13:36.153Z,72.31116421499945
2024-03-19T01:16:31.701Z,75.27730116621787
2024-03-19T01:19:28.297Z,72.75197580482168
2024-03-19T01:22:23.848Z,70.98022842512434
2024-03-19T01:25:19.397Z,69.18553322052341
2024-03-19T01:28:15.969Z,66.4073213689749
2024-03-19T01:31:11.509Z,68.86684973942793
2024-03-19T01:34:07.052Z,68.53213644491696
2024-03-19T01:37:02.657Z,66.67320872147315
2024-03-19T01:39:58.230Z,71.7045585253394
2024-03-19T01:42:55.946Z,69.85519787802542
2024-03-19T01:46:16.259Z,70.77265587294671
2024-03-19T01:49:12.826Z,72.15341463309929
2024-03-19T01:52:09.397Z,72.95784511225958
2024-03-19T01:55:06.934Z,69.69485493078365
2024-03-19T01:58:02.502Z,68.66603341259206
2024-03-19T02:00:58.042Z,70.10437273964021
2024-03-19T02:03:54.604Z,69.45401337339784
2024-03-19T02:06:52.183Z,73.69091027824233
2024-03-19T02:09:50.721Z,77.14430918346004
2024-03-19T02:12:46.312Z,73.7591977924249
2024-03-19T02:15:43.857Z,71.17909347027292
2024-03-19T02:18:39.434Z,75.96995192567414
2024-03-19T02:21:34.958Z,74.2624269734511
2024-03-19T02:24:32.537Z,73.80575615978783
2024-03-19T02:27:28.075Z,73.97371598558443
2024-03-19T02:30:25.626Z,72.29056124764055
2024-03-19T02:33:21.163Z,72.69928201626979
2024-03-19T02:36:16.767Z,73.7713765029509
2024-03-19T02:39:15.712Z,75.46590922377182
2024-03-19T02:42:11.860Z,74.88894645396782
2024-03-19T02:45:09.779Z,71.3230363949502
2024-03-19T02:48:06.035Z,76.1317115982717
2024-03-19T02:51:01.511Z,73.48478924480133
2024-03-19T02:53:59.116Z,73.40121125039639
2024-03-19T02:56:54.687Z,73.98607965547251
2024-03-19T02:59:50.262Z,73.74235718314759
2024-03-19T03:02:45.819Z,73.45818776498578
2024-03-19T03:05:45.352Z,73.5175925055294
2024-03-19T03:08:40.930Z,73.47614112445046
2024-03-19T03:11:37.480Z,75.67499226154638
2024-03-19T03:14:34.057Z,72.93882827043565
2024-03-19T03:17:30.623Z,72.60719983745025
2024-03-19T03:20:26.145Z,78.12018375098867
2024-03-19T03:23:21.685Z,74.95950428806438
2024-03-19T03:26:17.297Z,75.61703636055677
2024-03-19T03:29:12.832Z,73.7118467606693
2024-03-19T03:32:08.391Z,74.63045070604605
2024-03-19T03:35:04.962Z,74.30895941794374
2024-03-19T03:38:00.562Z,75.16328623221975
2024-03-19T03:40:57.033Z,73.02965119875209
2024-03-19T03:43:52.661Z,71.15103952765334
2024-03-19T03:46:48.204Z,73.76470895340859
2024-03-19T03:49:43.759Z,74.48790500462438
2024-03-19T03:52:41.326Z,74.81180484639314
2024-03-19T03:55:37.905Z,71.71499381250038
2024-03-19T03:58:33.401Z,75.48071173896112
2024-03-19T04:01:29.949Z,72.7887347124159
2024-03-19T04:04:25.565Z,75.2139146684311
2024-03-19T04:07:22.116Z,71.4575230994262
2024-03-19T04:10:18.659Z,71.12322163512172
2024-03-19T04:13:16.228Z,74.8145652913691
2024-03-19T04:16:12.786Z,75.94238558980143
2024-03-19T04:19:09.342Z,78.65212968600815
2024-03-19T04:22:05.930Z,72.751590885132
2024-03-19T04:25:03.470Z,73.79210096570853
2024-03-19T04:27:59.020Z,74.25837341257815
2024-03-19T04:30:55.581Z,73.04510201490638
2024-03-19T04:34:03.224Z,74.51638397741434
2024-03-19T04:36:59.640Z,73.24758532914583
2024-03-19T04:39:56.269Z,71.9803800404212
2024-03-19T04:42:52.809Z,71.06485159522842
2024-03-19T04:45:48.354Z,73.38865298220057
2024-03-19T04:48:43.910Z,70.66140861676186
2024-03-19T04:51:40.444Z,69.08610287615576
2024-03-19T04:54:36.035Z,71.82079552846635
2024-03-19T04:57:31.563Z,74.99093530597895
2024-03-19T05:00:27.166Z,72.61529496199383
2024-03-19T05:03:23.712Z,70.00435727714338
2024-03-19T05:06:19.300Z,68.95056792691862
2024-03-19T05:09:15.831Z,72.29726709749899
2024-03-19T05:12:11.387Z,66.56670948356997
2024-03-19T05:15:07.946Z,68.1865191754492
2024-03-19T05:18:03.519Z,72.70363340706739
2024-03-19T05:21:00.072Z,71.51711106306799
2024-03-19T05:23:56.662Z,72.5403899693782
2024-03-19T05:26:52.197Z,70.83533173513976
2024-03-19T05:29:48.747Z,71.14638393980468
2024-03-19T05:32:45.409Z,66.37165633321186
2024-03-19T05:35:42.884Z,68.28320658262548
2024-03-19T05:38:38.404Z,67.10750531034618
2024-03-19T05:41:34.007Z,67.02166178619825
2024-03-19T05:44:30.525Z,71.8840382415002
2024-03-19T05:47:26.146Z,65.55696143471063
2024-03-19T05:50:23.654Z,68.99694541393306
2024-03-19T05:53:22.716Z,66.66143118625538
2024-03-19T05:59:29.388Z,66.64242851433633
2024-03-19T06:02:24.852Z,65.69016050050082
2024-03-19T06:05:20.775Z,67.11923459907536
2024-03-19T06:08:16.981Z,61.30172111363051
2024-03-19T06:11:13.550Z,65.32655897577445
2024-03-19T06:14:10.121Z,62.09994357638109
2024-03-19T06:17:07.687Z,61.91489152394179
2024-03-19T06:20:05.238Z,59.33039948255855
2024-03-19T06:23:02.767Z,61.603022722515924
2024-03-19T06:25:59.312Z,64.99103876144896
2024-03-19T06:28:55.908Z,63.347817663482786
2024-03-19T06:31:51.425Z,59.42510787407769
2024-03-19T06:34:47.021Z,64.93064465448525
2024-03-19T06:37:45.565Z,59.86692355369046
2024-03-19T06:40:43.126Z,61.36882369341311
2024-03-19T06:43:40.737Z,60.4468054966085
2024-03-19T06:46:37.246Z,62.136421759967796
2024-03-19T06:49:32.832Z,63.009886130363135
2024-03-19T06:52:28.368Z,59.800317248110794
2024-03-19T06:55:23.940Z,57.457698054438694
2024-03-19T06:58:21.492Z,58.32188444689171
2024-03-19T07:01:19.047Z,58.34757063353908
2024-03-19T07:04:14.588Z,57.12054324095954
2024-03-19T07:07:14.156Z,56.43944308876168
2024-03-19T07:10:10.765Z,54.98274671147805
2024-03-19T07:13:07.255Z,57.22957262668446
2024-03-19T07:16:04.829Z,63.80484591769646
2024-03-19T07:19:00.358Z,61.8599143115353
2024-03-19T07:21:57.949Z,67.49582677056574
2024-03-19T07:24:54.472Z,74.85741314896494
2024-03-19T07:27:50.115Z,64.43752422341078
2024-03-19T07:30:46.620Z,64.7492415870345
2024-03-19T07:33:42.182Z,61.14811183741709
2024-03-19T07:36:40.725Z,64.57090770634429
2024-03-19T07:39:36.311Z,60.41701161792937
2024-03-19T07:42:32.901Z,66.5095932552722
2024-03-19T07:45:28.487Z,60.102379891319586
2024-03-19T07:48:28.037Z,62.158595651810764
2024-03-19T07:51:27.505Z,60.917455389684946
2024-03-19T07:54:29.136Z,63.70534406441418
2024-03-19T07:57:25.612Z,58.23974869184019
2024-03-19T08:00:26.152Z,55.563162170225176
2024-03-19T08:03:22.768Z,55.41714439353961
2024-03-19T08:06:32.291Z,54.03168574898861
2024-03-19T08:09:29.826Z,51.95427490652796
2024-03-19T08:12:27.972Z,51.61283779963717
2024-03-19T08:15:23.922Z,49.446867707980985
2024-03-19T08:18:19.459Z,49.64202879008747
2024-03-19T08:21:17.069Z,48.89777074951849
2024-03-19T08:24:16.561Z,50.43036169147596
2024-03-19T08:27:17.515Z,52.090004012662234
2024-03-19T08:30:13.735Z,48.183397562296356
2024-03-19T08:33:11.267Z,46.816760017670326
2024-03-19T08:36:08.808Z,46.98339811324549
2024-03-19T08:39:08.362Z,47.22642273229611
2024-03-19T08:42:06.922Z,47.22686827998236
2024-03-19T08:45:11.472Z,47.58576556711431
2024-03-19T08:48:10.019Z,47.21773159024773
2024-03-19T08:51:07.572Z,46.42485754063841
2024-03-19T08:54:03.089Z,46.62080961986164
2024-03-19T08:57:02.702Z,46.54739161928405
2024-03-19T09:00:02.234Z,45.73412928850462
2024-03-19T09:03:02.785Z,46.403842724009316
2024-03-19T09:05:59.379Z,45.979265546765994
2024-03-19T09:08:55.900Z,46.26364135806784
2024-03-19T09:11:52.490Z,46.596093885376334
2024-03-19T09:14:49.042Z,46.702280727799824
2024-03-19T09:17:46.690Z,46.92298024586553
2024-03-19T09:20:45.113Z,46.986920889419586
2024-03-19T09:23:44.976Z,46.39320871775584
2024-03-19T09:26:40.245Z,45.44298605066102
2024-03-19T09:29:37.628Z,43.500434270651276
2024-03-19T09:32:36.346Z,45.30553344764112
2024-03-19T09:35:35.871Z,43.63925461494404
2024-03-19T09:38:34.452Z,42.53981322928183
2024-03-19T09:41:36.019Z,42.67512782832695
2024-03-19T09:44:33.580Z,43.07793988782351
2024-03-19T09:47:32.155Z,44.252573807952544
2024-03-19T09:50:27.711Z,44.228649301673606
2024-03-19T09:53:35.217Z,43.48794394895402
2024-03-19T09:56:30.789Z,43.50419488020102
2024-03-19T09:59:29.386Z,41.9047360612816
2024-03-19T10:02:27.876Z,42.49007125337956
2024-03-19T10:05:24.476Z,40.79955869147672
2024-03-19T10:08:21.976Z,41.42469713725602
2024-03-19T10:11:20.534Z,40.17386988041616
2024-03-19T10:14:16.098Z,40.13454054992717
2024-03-19T10:17:14.705Z,39.69202502429921
2024-03-19T10:20:12.255Z,40.72538514645829
2024-03-19T10:23:10.771Z,39.47783532388695
2024-03-19T10:26:09.351Z,39.95360712304087
2024-03-19T10:29:07.504Z,40.09014583291823
2024-03-19T10:32:14.929Z,39.37789654372697
2024-03-19T10:35:19.011Z,39.28407065403091
2024-03-19T10:38:25.175Z,41.544460549707054
2024-03-19T10:41:31.005Z,39.77531089631631
2024-03-19T10:44:36.636Z,40.1314430839514
2024-03-19T10:47:35.141Z,40.57984129005963
2024-03-19T10:50:32.665Z,39.41606447882543
2024-03-19T10:53:35.237Z,40.37584218892643
2024-03-19T10:56:35.766Z,40.57150410990476
2024-03-19T10:59:38.316Z,38.18351805594895
2024-03-19T11:02:46.790Z,38.24523265652457
2024-03-19T11:05:52.412Z,39.68218156891449
2024-03-19T11:08:53.937Z,39.5175757892462
2024-03-19T11:11:51.481Z,41.04983717096603
2024-03-19T11:14:55.507Z,40.33315063255764
2024-03-19T11:17:52.595Z,41.3235573306639
2024-03-19T11:20:52.126Z,39.85450041656958
2024-03-19T11:23:52.666Z,39.21531383128523
2024-03-19T11:26:48.230Z,39.41570047845901
2024-03-19T11:29:49.811Z,41.72924355440505
2024-03-19T11:32:54.326Z,39.26630898823604
2024-03-19T11:35:53.856Z,39.53149242126876
2024-03-19T11:38:55.475Z,38.91314321992281
2024-03-19T11:41:56.010Z,37.62431770949344
2024-03-19T11:44:52.515Z,36.61235757299922
2024-03-19T11:47:50.455Z,36.99505545046554
2024-03-19T11:50:54.614Z,37.196530931352335
2024-03-19T11:53:59.175Z,36.544070221094856
2024-03-19T11:56:59.734Z,37.68567885154321
2024-03-19T11:59:56.939Z,37.15246195603245
2024-03-19T12:02:54.823Z,37.57386982176379
2024-03-19T12:05:52.336Z,37.03563895790577
2024-03-19T12:08:49.920Z,38.7284864668958
2024-03-19T12:11:48.495Z,40.07331455226719
2024-03-19T12:14:47.004Z,40.670021770404766
2024-03-19T12:17:46.617Z,40.252571477648125
2024-03-19T12:20:46.333Z,40.12597671192277
2024-03-19T12:23:45.660Z,41.83354157908649
2024-03-19T12:26:44.215Z,42.29178923520338
2024-03-19T12:29:43.783Z,42.19278452698594
2024-03-19T12:32:49.656Z,40.87438929161376
2024-03-19T12:35:45.865Z,41.702378795948526
2024-03-19T12:38:46.818Z,40.6980774433317
2024-03-19T12:41:46.018Z,41.80056621449824
2024-03-19T12:44:47.763Z,42.5329701749883
2024-03-19T12:47:45.075Z,41.58786230472863
2024-03-19T12:50:43.704Z,41.806494117780765
2024-03-19T12:53:41.167Z,40.827721971143696
2024-03-19T12:56:40.441Z,41.388492483761524
2024-03-19T12:59:38.325Z,43.03476889606077
2024-03-19T13:02:34.863Z,41.06461979744481
2024-03-19T13:05:30.417Z,41.910049054194026
2024-03-19T13:08:28.029Z,42.10177909000737
2024-03-19T13:11:24.543Z,40.95349179111462
2024-03-19T13:14:21.134Z,41.59500113214284
2024-03-19T13:17:16.696Z,42.02650652998622
2024-03-19T13:20:12.266Z,40.34784781419829
2024-03-19T13:23:09.812Z,39.925629238046
2024-03-19T13:26:10.324Z,38.85011124704451
2024-03-19T13:29:05.878Z,39.29176118072916
2024-03-19T13:32:01.512Z,41.32655598222994
2024-03-19T13:34:59.033Z,39.11925309449506
2024-03-19T13:37:55.685Z,39.023318837966464
2024-03-19T13:40:52.131Z,36.01530436682106
2024-03-19T13:43:47.673Z,38.368542962449
2024-03-19T13:46:48.265Z,40.16453227105175
2024-03-19T13:49:59.562Z,40.74226602925866
2024-03-19T13:52:57.347Z,39.226402012023684
2024-03-19T13:55:53.851Z,38.696893172745305
2024-03-19T13:58:50.441Z,35.452266349730166
2024-03-19T14:01:48.023Z,33.17185632623374
2024-03-19T14:04:44.539Z,31.243037799169215
2024-03-19T14:07:40.093Z,32.91539740003401
2024-03-19T14:10:38.727Z,35.43393424862709
2024-03-19T14:13:35.219Z,34.63286448721185
2024-03-19T14:16:31.791Z,36.30325486534645
2024-03-19T14:19:28.354Z,37.71924218697423
2024-03-19T14:22:29.883Z,37.40329730862351
2024-03-19T14:25:25.408Z,36.76472116802101
2024-03-19T14:28:21.986Z,36.765802707286305
2024-03-19T14:31:26.558Z,35.63338255617203
2024-03-19T14:34:25.094Z,35.10367828831859
2024-03-19T14:37:20.707Z,33.61571097668211
2024-03-19T14:40:17.223Z,32.94516463107072
2024-03-19T14:43:12.781Z,33.01911179765378
2024-03-19T14:46:10.357Z,34.10654835502931
2024-03-19T14:49:08.900Z,35.31075948010356
2024-03-19T14:52:05.447Z,32.83008259615589
2024-03-19T14:55:02.021Z,33.82661062832162
2024-03-19T14:58:01.576Z,33.709477354756814
2024-03-19T15:00:57.129Z,31.809776630892546
2024-03-19T15:03:52.787Z,30.588546891075232
2024-03-19T15:06:48.622Z,32.55378751638482
2024-03-19T15:09:48.832Z,33.98211731229945
2024-03-19T15:12:46.345Z,33.835450745873096
2024-03-19T15:15:45.920Z,34.19952969270125
2024-03-19T15:18:42.460Z,30.3103612495536
2024-03-19T15:21:38.999Z,29.673885603299837
2024-03-19T15:24:34.545Z,27.258775543901557
2024-03-19T15:27:30.164Z,23.672732124763975
2024-03-19T15:30:27.680Z,25.373631382690583
2024-03-19T15:33:23.295Z,28.93624038520168
2024-03-19T15:36:18.833Z,29.479659646686592
2024-03-19T15:39:15.710Z,26.82014471421155
2024-03-19T15:42:11.009Z,26.154057721683824
2024-03-19T15:45:11.486Z,24.21012171498532
2024-03-19T15:48:08.101Z,25.89194798542295
2024-03-19T15:51:06.641Z,28.417303613768336
2024-03-19T15:54:02.159Z,26.394566167534578
2024-03-19T15:56:59.726Z,25.57779177649093
2024-03-19T15:59:56.274Z,25.694513747060693
2024-03-19T16:02:57.821Z,26.217781726290436
2024-03-19T16:05:53.382Z,25.579867581181496
2024-03-19T16:08:54.942Z,27.415616194956854
2024-03-19T16:11:51.523Z,24.137020016083742
2024-03-19T16:14:47.071Z,24.645971054939942
2024-03-19T16:17:47.558Z,27.394556461155844
2024-03-19T16:20:44.167Z,27.086020066234
2024-03-19T16:23:44.719Z,25.68712363032068
2024-03-19T16:26:40.492Z,25.531727717533883
2024-03-19T16:29:35.797Z,27.11630766664704
2024-03-19T16:32:33.389Z,28.85664687700996
2024-03-19T16:35:28.966Z,29.117108875402998
2024-03-19T16:38:26.537Z,29.07228868839345
2024-03-19T16:41:22.078Z,31.01945974044638
2024-03-19T16:44:22.608Z,33.269107386607075
2024-03-19T16:47:18.137Z,32.79344585164414
2024-03-19T16:50:16.088Z,35.47673741911282
2024-03-19T16:53:11.310Z,34.472225504569664
2024-03-19T16:56:08.852Z,35.53188455074359
2024-03-19T16:59:05.445Z,36.0253496870333
2024-03-19T17:02:07.959Z,38.03930843175484
2024-03-19T17:05:09.508Z,37.154848197698364
2024-03-19T17:08:10.262Z,37.85161652005108
2024-03-19T17:11:06.610Z,39.79723109477646
2024-03-19T17:14:06.158Z,38.88323025153385
2024-03-19T17:17:04.726Z,39.127616905795634
2024-03-19T17:20:11.078Z,39.3064559791193
2024-03-19T17:23:14.848Z,40.049258636022635
2024-03-19T17:26:14.315Z,40.489545631175524
2024-03-19T17:29:10.926Z,41.03401902140581
2024-03-19T17:32:11.416Z,40.65696418159924
2024-03-19T17:35:13.013Z,40.21067291993421
2024-03-19T17:38:18.542Z,40.721019493053596
2024-03-19T17:41:16.090Z,41.501469627993856
2024-03-19T17:44:17.379Z,42.6076840985481
2024-03-19T17:47:20.164Z,43.72098892992339
2024-03-19T17:50:19.732Z,43.52704200067723
2024-03-19T17:53:19.281Z,43.86624794871946
2024-03-19T17:56:21.734Z,44.848732504107126
2024-03-19T17:59:20.402Z,45.6134677764522
2024-03-19T18:02:20.906Z,44.97616815952341
2024-03-19T18:05:16.587Z,45.04640759170489
2024-03-19T18:08:13.059Z,45.16047713685793
2024-03-19T18:11:09.602Z,44.92575710649075
2024-03-19T18:14:06.147Z,45.71517267538398
2024-03-19T18:17:05.709Z,46.543325658945
2024-03-19T18:20:01.278Z,46.82550573030567
2024-03-19T18:23:07.798Z,47.18444404363181
2024-03-19T18:26:08.374Z,46.71625298723238
2024-03-19T18:29:08.914Z,47.39841137157642
2024-03-19T18:32:07.932Z,48.8623044683338
2024-03-19T18:35:06.025Z,48.22615298208593
2024-03-19T18:38:04.555Z,47.76143207954191
2024-03-19T18:41:01.134Z,48.95035538318493
2024-03-19T18:44:04.666Z,49.69664185219286
2024-03-19T18:47:11.011Z,50.174230581426635
2024-03-19T18:50:09.573Z,50.68076065963331
2024-03-19T18:53:11.339Z,50.752482670996386
2024-03-19T18:56:15.891Z,50.383882239609534
2024-03-19T18:59:13.409Z,50.094605287903306
2024-03-19T19:02:08.962Z,49.991317270072784
2024-03-19T19:05:12.510Z,49.96162900591632
2024-03-19T19:08:08.185Z,50.71249882733998
2024-03-19T19:11:05.692Z,51.753749468623084
2024-03-19T19:14:02.184Z,51.36159818033625
2024-03-19T19:17:08.192Z,50.80121875658118
2024-03-19T19:20:05.283Z,51.18207193039248
2024-03-19T19:23:02.809Z,51.213995395051136
2024-03-19T19:26:00.422Z,52.1935632736319
2024-03-19T19:29:10.715Z,52.2917047080095
2024-03-19T19:32:15.480Z,52.99575099953595
2024-03-19T19:35:24.990Z,54.26862008461668
2024-03-19T19:38:31.253Z,56.46474249644213
2024-03-19T19:41:49.539Z,57.66757731072769
2024-03-19T19:44:45.589Z,58.63452523472436
2024-03-19T19:47:42.170Z,58.904633805619916
2024-03-19T19:50:44.700Z,58.90938449758818
2024-03-19T19:53:45.206Z,59.7441245588981
2024-03-19T19:56:49.060Z,60.54430938184098
2024-03-19T19:59:57.098Z,60.592184547729246
2024-03-19T20:02:57.827Z,61.12079040567481
2024-03-19T20:05:57.392Z,60.74162466677555
2024-03-19T20:08:54.995Z,61.955806656023064
2024-03-19T20:12:00.492Z,63.54625979754582
2024-03-19T20:14:59.068Z,62.57389231113714
2024-03-19T20:17:55.594Z,62.83617416761079
2024-03-19T20:20:59.155Z,62.99514610644528
2024-03-19T20:24:00.714Z,63.33998485981263
2024-03-19T20:26:57.274Z,65.73490303926386
2024-03-19T20:29:57.815Z,67.83385901832371
2024-03-19T20:32:56.399Z,62.320929983939266
2024-03-19T20:35:57.963Z,64.05638421773924
2024-03-19T20:38:59.462Z,61.97727884666757
2024-03-19T20:42:00.987Z,62.497647227146444
2024-03-19T20:44:59.561Z,63.287463198958534
2024-03-19T20:48:06.167Z,63.70210513933681
2024-03-19T20:51:09.664Z,64.77613830498403
2024-03-19T20:54:09.176Z,66.75797463327592
2024-03-19T20:57:10.753Z,67.16636547115662
2024-03-19T21:00:16.605Z,67.18455925450534
2024-03-19T21:03:18.796Z,68.63709922595544
2024-03-19T21:07:02.200Z,67.42542047419771
2024-03-19T21:10:02.721Z,67.31315214635653
2024-03-19T21:12:58.358Z,65.53260275388203
2024-03-19T21:15:53.895Z,64.55803052505384
2024-03-19T21:18:55.450Z,65.87373399200341
2024-03-19T21:21:52.019Z,64.98378207939555
2024-03-19T21:24:49.934Z,65.22441157196327
2024-03-19T21:27:45.095Z,66.17027263079625
2024-03-19T21:30:44.702Z,65.7218420273612
2024-03-19T21:33:42.676Z,63.3902658868715
2024-03-19T21:36:44.780Z,64.06939996001542
2024-03-19T21:39:41.382Z,64.81828370432443
2024-03-19T21:42:36.913Z,66.83944221932713
2024-03-19T21:48:39.015Z,68.90435192139503
2024-03-19T21:51:35.528Z,68.81749221565309
2024-03-19T21:54:32.125Z,68.48677009985555
2024-03-19T21:57:31.680Z,70.540959135399
2024-03-19T22:00:32.218Z,71.0626110072871
2024-03-19T22:03:31.789Z,71.56821606262051
2024-03-19T22:09:32.871Z,74.21907564971819
2024-03-19T22:12:32.762Z,74.82395500657978
2024-03-19T22:18:37.555Z,76.30686576846992
2024-03-19T22:21:33.050Z,75.8277111072218
2024-03-19T22:24:31.707Z,77.18563041794586
2024-03-19T22:27:28.205Z,77.35125502123728
2024-03-19T22:30:24.729Z,67.16430139972502
2024-03-19T22:33:20.299Z,68.95329152799272
2024-03-19T22:36:15.917Z,67.87361293696017
2024-03-19T22:39:23.427Z,68.32214304639196
2024-03-19T22:42:20.057Z,69.22390054451384
2024-03-19T22:45:15.505Z,71.36874542913719
2024-03-19T22:48:11.076Z,78.0129386461853
2024-03-19T22:51:06.649Z,72.48558512077902
2024-03-19T22:54:02.186Z,69.73071803137643
2024-03-19T22:56:58.768Z,66.62286990644337
2024-03-19T23:03:06.827Z,71.41236457450508
2024-03-19T23:06:05.374Z,67.48473685771442
2024-03-19T23:09:02.945Z,69.98700424333353
2024-03-19T23:11:58.487Z,72.42298820809604
2024-03-19T23:14:55.066Z,74.11447683133248
2024-03-19T23:17:52.928Z,74.23335976627867
2024-03-19T23:20:48.201Z,74.22780245092724
2024-03-19T23:23:46.708Z,70.40398263675273
2024-03-19T23:26:42.314Z,70.67504364445126
2024-03-19T23:29:38.837Z,68.21245939058053
2024-03-19T23:32:35.543Z,61.05006661265628
2024-03-19T23:35:30.930Z,62.50284563396828
2024-03-19T23:38:26.502Z,65.09387459095196
2024-03-19T23:41:24.080Z,66.52868857460666
2024-03-19T23:44:19.695Z,68.01180367600931
2024-03-19T23:47:16.221Z,71.33003376074815
2024-03-19T23:50:11.788Z,74.6675413683959
2024-03-19T23:53:10.303Z,71.96578111980976
2024-03-19T23:56:08.863Z,70.07983460820249
2024-03-19T23:59:05.446Z,67.49657008295641
